Time;durP1;ratioP1;P1;durP2;ratioP2;P2;SDS_P1;SDS_P2;PMS_P1;PMS_P2;Temp;Humidity;BMP_temperature;BMP_pressure;BME280_temperature;BME280_humidity;BME280_pressure;Samples;Min_cycle;Max_cycle;Signal;HPM_P1;HPM_P2
2023/05/13 00:00:35;;;;;;;9.48;6.57;;;13.40;99.90;;;;;;5029741;28;20106;-73
2023/05/13 00:03:01;;;;;;;10.27;7.32;;;13.40;99.90;;;;;;5030033;28;20100;-73
2023/05/13 00:05:26;;;;;;;14.77;8.47;;;13.40;99.90;;;;;;5029686;28;20100;-73
2023/05/13 00:07:52;;;;;;;9.30;7.13;;;13.40;99.90;;;;;;5030227;28;20024;-73
2023/05/13 00:10:19;;;;;;;11.17;8.30;;;13.40;99.90;;;;;;5028512;28;20025;-73
2023/05/13 00:12:45;;;;;;;12.82;7.85;;;13.40;99.90;;;;;;5045114;28;20029;-73
2023/05/13 00:15:11;;;;;;;13.90;8.15;;;13.40;99.90;;;;;;5029927;28;20033;-72
2023/05/13 00:17:36;;;;;;;11.23;7.47;;;13.40;99.90;;;;;;5029809;28;20087;-73
2023/05/13 00:20:03;;;;;;;14.70;7.90;;;13.40;99.90;;;;;;5028588;28;20032;-73
2023/05/13 00:22:29;;;;;;;11.23;8.18;;;13.40;99.90;;;;;;5024968;28;20100;-73
2023/05/13 00:24:54;;;;;;;15.32;8.25;;;13.40;99.90;;;;;;5030042;28;20483;-73
2023/05/13 00:27:20;;;;;;;13.27;8.50;;;13.40;99.90;;;;;;5030225;28;20401;-74
2023/05/13 00:29:45;;;;;;;11.40;8.00;;;13.40;99.90;;;;;;5030690;28;20029;-73
2023/05/13 00:32:11;;;;;;;13.20;9.43;;;13.40;99.90;;;;;;5029628;28;20017;-73
2023/05/13 00:34:37;;;;;;;13.33;8.30;;;13.40;99.90;;;;;;5029793;28;20037;-73
2023/05/13 00:37:02;;;;;;;13.63;9.47;;;13.40;99.90;;;;;;5029806;28;20045;-73
2023/05/13 00:39:28;;;;;;;10.07;7.87;;;13.40;99.90;;;;;;5029544;28;20160;-73
2023/05/13 00:41:53;;;;;;;13.17;8.63;;;13.50;99.90;;;;;;5029759;28;20543;-73
2023/05/13 00:44:19;;;;;;;11.83;8.80;;;13.40;99.90;;;;;;5029307;28;20027;-74
2023/05/13 00:46:45;;;;;;;11.80;8.27;;;13.40;99.90;;;;;;5029970;28;20077;-74
2023/05/13 00:49:10;;;;;;;14.03;8.93;;;13.40;99.90;;;;;;5030183;28;20349;-74
2023/05/13 00:51:36;;;;;;;12.13;8.80;;;13.40;99.90;;;;;;5029556;28;20094;-73
2023/05/13 00:54:02;;;;;;;9.77;8.47;;;13.30;99.90;;;;;;5029994;28;20043;-74
2023/05/13 00:56:27;;;;;;;12.82;8.88;;;13.30;99.90;;;;;;5028441;28;20029;-74
2023/05/13 00:58:53;;;;;;;15.13;9.07;;;13.40;99.90;;;;;;5032598;28;20084;-71
2023/05/13 01:01:26;;;;;;;15.37;8.83;;;13.30;99.90;;;;;;5036695;28;20437;-73
2023/05/13 01:04:20;;;;;;;14.20;8.32;;;13.40;99.90;;;;;;5044067;28;20029;-74
2023/05/13 01:07:05;;;;;;;14.65;8.23;;;13.30;99.90;;;;;;5037225;28;20096;-73
2023/05/13 01:10:10;;;;;;;12.10;8.70;;;13.30;99.90;;;;;;5044410;28;20036;-74
2023/05/13 01:12:39;;;;;;;10.68;8.68;;;13.40;99.90;;;;;;5039382;28;20099;-73
2023/05/13 01:15:08;;;;;;;13.57;8.57;;;13.40;99.90;;;;;;5028558;28;20033;-74
2023/05/13 01:17:41;;;;;;;12.07;9.55;;;13.30;99.90;;;;;;5019116;28;20025;-74
2023/05/13 01:20:07;;;;;;;14.90;9.02;;;13.30;99.90;;;;;;5028419;28;20848;-73
2023/05/13 01:22:33;;;;;;;12.45;9.00;;;13.40;99.90;;;;;;5028480;28;20017;-73
2023/05/13 01:24:59;;;;;;;11.73;8.60;;;13.40;99.90;;;;;;5027821;28;20523;-73
2023/05/13 01:27:24;;;;;;;13.35;8.25;;;13.30;99.90;;;;;;5026012;28;20034;-73
2023/05/13 01:29:51;;;;;;;14.67;9.43;;;13.30;99.90;;;;;;5029670;28;20148;-72
2023/05/13 01:32:17;;;;;;;13.05;9.20;;;13.30;99.90;;;;;;5028686;28;20028;-72
2023/05/13 01:34:44;;;;;;;11.32;8.80;;;13.40;99.90;;;;;;5027813;28;20156;-73
2023/05/13 01:37:10;;;;;;;12.35;8.90;;;13.40;99.90;;;;;;5028429;28;20040;-73
2023/05/13 01:39:39;;;;;;;11.17;9.13;;;13.40;99.90;;;;;;5028406;28;20033;-73
2023/05/13 01:42:05;;;;;;;9.80;8.15;;;13.30;99.90;;;;;;5028439;28;20057;-73
2023/05/13 01:44:30;;;;;;;14.98;9.32;;;13.30;99.90;;;;;;5027297;28;20021;-72
2023/05/13 01:46:56;;;;;;;13.73;8.57;;;13.30;99.90;;;;;;5028340;28;20056;-73
2023/05/13 01:49:21;;;;;;;13.27;9.00;;;13.30;99.90;;;;;;5028934;28;20042;-72
2023/05/13 01:51:47;;;;;;;14.03;8.87;;;13.40;99.90;;;;;;5043270;28;20120;-72
2023/05/13 01:54:12;;;;;;;14.13;9.00;;;13.30;99.90;;;;;;5043092;28;20583;-72
2023/05/13 01:56:38;;;;;;;16.40;10.70;;;13.30;99.90;;;;;;5041884;28;20030;-72
2023/05/13 01:59:04;;;;;;;15.23;8.37;;;13.30;99.90;;;;;;5027981;28;20501;-73
2023/05/13 02:01:29;;;;;;;13.73;9.13;;;13.20;99.90;;;;;;5027618;28;20489;-73
2023/05/13 02:04:00;;;;;;;13.00;9.30;;;13.30;99.90;;;;;;5028134;28;20030;-72
2023/05/13 02:06:27;;;;;;;18.70;9.25;;;13.30;99.90;;;;;;5026373;28;20112;-73
2023/05/13 02:08:52;;;;;;;16.77;9.60;;;13.30;99.90;;;;;;5027778;28;20095;-73
2023/05/13 02:11:18;;;;;;;13.83;9.83;;;13.20;99.90;;;;;;5028471;28;20725;-73
2023/05/13 02:13:43;;;;;;;15.10;9.80;;;13.20;99.90;;;;;;5042786;28;20296;-73
2023/05/13 02:16:16;;;;;;;14.57;10.07;;;13.20;99.90;;;;;;5027402;28;20125;-73
2023/05/13 02:18:41;;;;;;;15.63;10.40;;;13.20;99.90;;;;;;5019681;28;20382;-73
2023/05/13 02:21:07;;;;;;;13.33;8.83;;;13.20;99.90;;;;;;5027682;28;20032;-73
2023/05/13 02:23:33;;;;;;;13.47;9.50;;;13.20;99.90;;;;;;5027907;28;20025;-73
2023/05/13 02:25:58;;;;;;;12.40;9.20;;;13.20;99.90;;;;;;5027743;28;20048;-73
2023/05/13 02:28:24;;;;;;;14.73;9.83;;;13.30;99.90;;;;;;5027794;28;20025;-73
2023/05/13 02:30:50;;;;;;;16.97;10.90;;;13.30;99.90;;;;;;5027937;28;20053;-73
2023/05/13 02:33:15;;;;;;;14.10;10.35;;;13.20;99.90;;;;;;5027597;28;20560;-73
2023/05/13 02:35:41;;;;;;;14.73;10.23;;;13.20;99.90;;;;;;5027032;28;20041;-73
2023/05/13 02:38:09;;;;;;;13.30;9.93;;;13.20;99.90;;;;;;5028802;28;20531;-73
2023/05/13 02:40:36;;;;;;;14.90;9.98;;;13.20;99.90;;;;;;5026838;28;20068;-72
2023/05/13 02:43:02;;;;;;;12.85;9.45;;;13.30;99.90;;;;;;5027960;28;20497;-71
2023/05/13 02:45:27;;;;;;;14.70;10.57;;;13.30;99.90;;;;;;5039153;28;20064;-70
2023/05/13 02:47:53;;;;;;;16.73;10.27;;;13.20;99.90;;;;;;5037919;28;20029;-73
2023/05/13 02:50:19;;;;;;;15.63;10.03;;;13.20;99.90;;;;;;5060121;28;20033;-73
2023/05/13 02:52:44;;;;;;;13.83;11.00;;;13.20;99.90;;;;;;5027173;28;20431;-73
2023/05/13 02:55:10;;;;;;;18.43;10.17;;;13.20;99.90;;;;;;5024502;28;20042;-73
2023/05/13 02:57:36;;;;;;;22.03;11.97;;;13.20;99.90;;;;;;5027640;28;20025;-73
2023/05/13 03:00:04;;;;;;;11.82;9.55;;;13.20;99.90;;;;;;5058911;28;20022;-73
2023/05/13 03:02:30;;;;;;;18.13;9.93;;;13.20;99.90;;;;;;5027109;28;20025;-73
2023/05/13 03:04:56;;;;;;;;;;;13.20;99.90;;;;;;5026904;28;20026;-72
2023/05/13 03:07:23;;;;;;;18.02;9.63;;;13.20;99.90;;;;;;5027290;28;19909;-72
2023/05/13 03:09:48;;;;;;;13.45;9.40;;;13.20;99.90;;;;;;5027264;28;20034;-72
2023/05/13 03:12:14;;;;;;;16.83;10.57;;;13.20;99.90;;;;;;5026545;28;20032;-72
2023/05/13 03:14:41;;;;;;;14.52;9.88;;;13.20;99.90;;;;;;5026939;28;20140;-72
2023/05/13 03:17:07;;;;;;;12.73;8.93;;;13.20;99.90;;;;;;5027838;28;20041;-72
2023/05/13 03:19:38;;;;;;;15.32;10.23;;;13.20;99.90;;;;;;5029066;28;20075;-73
2023/05/13 03:22:04;;;;;;;17.02;9.52;;;13.30;99.90;;;;;;5033940;28;20032;-73
2023/05/13 03:24:30;;;;;;;;;;;13.20;99.90;;;;;;5035415;28;20029;-73
2023/05/13 03:26:56;;;;;;;11.63;8.52;;;13.20;99.90;;;;;;5030534;28;19909;-74
2023/05/13 03:29:22;;;;;;;19.75;9.32;;;13.10;99.90;;;;;;5030657;28;20035;-72
2023/05/13 03:31:48;;;;;;;14.63;9.43;;;13.20;99.90;;;;;;5031762;28;20029;-74
2023/05/13 03:34:14;;;;;;;13.95;10.40;;;13.20;99.90;;;;;;5029611;28;20075;-73
2023/05/13 03:36:40;;;;;;;12.25;9.68;;;13.20;99.90;;;;;;5031428;28;20117;-73
2023/05/13 03:39:06;;;;;;;15.70;9.93;;;13.20;99.90;;;;;;5033524;28;20806;-74
2023/05/13 03:41:31;;;;;;;15.17;10.47;;;13.10;99.90;;;;;;5030051;28;20044;-73
2023/05/13 03:43:57;;;;;;;14.80;10.80;;;13.20;99.90;;;;;;5033367;28;20501;-73
2023/05/13 03:46:22;;;;;;;18.47;11.10;;;13.20;99.90;;;;;;5031880;28;20135;-73
2023/05/13 03:48:48;;;;;;;20.30;10.03;;;13.10;99.90;;;;;;5031845;28;20723;-73
2023/05/13 03:51:14;;;;;;;16.30;9.73;;;13.10;99.90;;;;;;5027278;28;20044;-73
2023/05/13 03:53:40;;;;;;;16.67;11.13;;;13.10;99.90;;;;;;5059893;28;20053;-73
2023/05/13 03:56:06;;;;;;;19.33;10.85;;;13.10;99.90;;;;;;5028108;28;20045;-73
2023/05/13 03:58:32;;;;;;;18.63;10.37;;;13.10;99.90;;;;;;5032237;28;20036;-72
2023/05/13 04:00:57;;;;;;;15.60;10.33;;;13.10;99.90;;;;;;5031382;28;20079;-73
2023/05/13 04:03:23;;;;;;;19.27;11.20;;;13.10;99.90;;;;;;5033349;28;20779;-73
2023/05/13 04:05:49;;;;;;;16.93;11.00;;;13.00;99.90;;;;;;5030407;28;20048;-73
2023/05/13 04:08:15;;;;;;;;;;;13.00;99.90;;;;;;5030938;28;20030;-74
2023/05/13 04:10:41;;;;;;;15.95;10.45;;;13.10;99.90;;;;;;5031987;28;19909;-74
2023/05/13 04:13:07;;;;;;;22.47;11.03;;;13.10;99.90;;;;;;5033677;28;20035;-74
2023/05/13 04:15:32;;;;;;;12.80;9.50;;;13.10;99.90;;;;;;5030746;28;20052;-73
2023/05/13 04:18:00;;;;;;;12.27;9.40;;;13.10;99.90;;;;;;5045135;28;20022;-74
2023/05/13 04:20:25;;;;;;;13.45;10.02;;;13.10;99.90;;;;;;5031057;28;20087;-74
2023/05/13 04:22:51;;;;;;;13.23;9.40;;;13.10;99.90;;;;;;5034025;28;20478;-73
2023/05/13 04:25:17;;;;;;;17.03;9.20;;;13.10;99.90;;;;;;5028667;28;20393;-72
2023/05/13 04:27:43;;;;;;;13.30;9.50;;;13.10;99.90;;;;;;5028464;28;20036;-72
2023/05/13 04:30:09;;;;;;;12.53;10.00;;;13.10;99.90;;;;;;5045063;28;20049;-70
2023/05/13 04:32:35;;;;;;;17.70;10.48;;;13.10;99.90;;;;;;5063638;28;20018;-73
2023/05/13 04:35:00;;;;;;;16.80;10.13;;;13.10;99.90;;;;;;5031161;28;20056;-72
2023/05/13 04:37:26;;;;;;;14.37;10.03;;;13.10;99.90;;;;;;5032235;28;20021;-73
2023/05/13 04:39:52;;;;;;;15.43;9.77;;;13.10;99.90;;;;;;5025287;28;20291;-73
2023/05/13 04:42:17;;;;;;;16.87;10.10;;;13.10;99.90;;;;;;5028129;28;20025;-72
2023/05/13 04:44:43;;;;;;;11.50;9.37;;;13.10;99.90;;;;;;5032333;28;20064;-72
2023/05/13 04:47:09;;;;;;;13.35;9.38;;;13.10;99.90;;;;;;5033362;28;20029;-72
2023/05/13 04:49:35;;;;;;;22.10;10.50;;;13.10;99.90;;;;;;5034396;28;20112;-73
2023/05/13 04:52:02;;;;;;;15.13;9.73;;;13.10;99.90;;;;;;5027122;28;20026;-72
2023/05/13 04:54:27;;;;;;;14.55;9.90;;;13.10;99.90;;;;;;5029689;28;20037;-73
2023/05/13 04:56:53;;;;;;;16.23;10.53;;;13.10;99.90;;;;;;5024540;28;20022;-73
2023/05/13 04:59:18;;;;;;;14.03;10.10;;;13.10;99.90;;;;;;5027962;28;20037;-73
2023/05/13 05:01:44;;;;;;;15.27;10.27;;;13.10;99.90;;;;;;5032740;28;20547;-73
2023/05/13 05:04:11;;;;;;;17.63;10.33;;;13.10;99.90;;;;;;5031473;28;20091;-73
2023/05/13 05:06:36;;;;;;;13.35;10.15;;;13.20;99.90;;;;;;5029289;28;20036;-72
2023/05/13 05:09:02;;;;;;;18.73;10.27;;;13.20;99.90;;;;;;5030885;28;20033;-73
2023/05/13 05:11:28;;;;;;;16.77;10.47;;;13.10;99.90;;;;;;5023950;28;20025;-73
2023/05/13 05:13:54;;;;;;;12.83;9.93;;;13.10;99.90;;;;;;5028688;28;20037;-73
2023/05/13 05:16:19;;;;;;;12.80;9.60;;;13.10;99.90;;;;;;5024178;28;20025;-73
2023/05/13 05:18:45;;;;;;;14.37;9.63;;;13.10;99.90;;;;;;5020628;28;20030;-73
2023/05/13 05:21:11;;;;;;;12.60;10.00;;;13.10;99.90;;;;;;5028864;28;20032;-72
2023/05/13 05:23:37;;;;;;;13.63;10.93;;;13.10;99.90;;;;;;5019121;28;20390;-72
2023/05/13 05:26:03;;;;;;;16.13;10.48;;;13.10;99.90;;;;;;5026256;28;20033;-73
2023/05/13 05:28:29;;;;;;;16.33;10.88;;;13.20;99.90;;;;;;5030009;28;20057;-72
2023/05/13 05:30:55;;;;;;;13.30;10.52;;;13.20;99.90;;;;;;5029797;28;20033;-72
2023/05/13 05:33:21;;;;;;;17.73;10.95;;;13.10;99.90;;;;;;5029021;28;20089;-73
2023/05/13 05:35:46;;;;;;;15.20;10.57;;;13.10;99.90;;;;;;5027729;28;20029;-72
2023/05/13 05:38:12;;;;;;;14.43;10.60;;;13.10;99.90;;;;;;5026693;28;20082;-71
2023/05/13 05:40:44;;;;;;;16.53;10.90;;;13.20;99.90;;;;;;5019560;28;20061;-72
2023/05/13 05:43:10;;;;;;;14.13;10.95;;;13.20;99.90;;;;;;5032642;28;20144;-71
2023/05/13 05:45:37;;;;;;;23.15;11.32;;;13.20;99.90;;;;;;5013092;28;20119;-71
2023/05/13 05:48:03;;;;;;;;;;;13.20;99.90;;;;;;5028590;28;20497;-71
2023/05/13 05:50:29;;;;;;;16.27;11.63;;;13.20;99.90;;;;;;5028120;28;19947;-71
2023/05/13 05:52:56;;;;;;;16.45;11.07;;;13.20;99.90;;;;;;5028783;28;20493;-72
2023/05/13 05:55:21;;;;;;;15.93;11.15;;;13.20;99.90;;;;;;5027019;28;20036;-72
2023/05/13 05:57:47;;;;;;;16.70;11.13;;;13.20;99.90;;;;;;5028117;28;20565;-72
2023/05/13 06:00:13;;;;;;;13.37;11.30;;;13.30;99.90;;;;;;5027765;28;20040;-72
2023/05/13 06:02:40;;;;;;;15.65;11.90;;;13.20;99.90;;;;;;5035999;28;20080;-72
2023/05/13 06:05:06;;;;;;;15.32;10.82;;;13.30;99.90;;;;;;5027149;28;20033;-71
2023/05/13 06:07:32;;;;;;;15.73;10.82;;;13.30;99.90;;;;;;5027752;28;20051;-74
2023/05/13 06:09:57;;;;;;;16.00;11.53;;;13.30;99.90;;;;;;5031125;28;20816;-72
2023/05/13 06:12:23;;;;;;;22.07;11.57;;;13.40;99.90;;;;;;5028509;28;20520;-72
2023/05/13 06:14:49;;;;;;;16.03;11.97;;;13.40;99.90;;;;;;5029719;28;20136;-75
2023/05/13 06:17:15;;;;;;;15.02;11.23;;;13.40;99.90;;;;;;5038004;28;20112;-71
2023/05/13 06:19:44;;;;;;;19.47;11.03;;;13.50;99.90;;;;;;5029015;28;20052;-71
2023/05/13 06:22:10;;;;;;;18.38;12.40;;;13.50;99.90;;;;;;5024905;28;20295;-73
2023/05/13 06:24:41;;;;;;;22.02;12.50;;;13.40;99.90;;;;;;5028787;28;20108;-74
2023/05/13 06:27:08;;;;;;;16.15;11.70;;;13.50;99.90;;;;;;5028653;28;20787;-74
2023/05/13 06:29:34;;;;;;;18.73;11.90;;;13.50;99.90;;;;;;5023815;28;20108;-74
2023/05/13 06:32:00;;;;;;;17.23;11.93;;;13.40;99.90;;;;;;5028849;28;20906;-76
2023/05/13 06:34:25;;;;;;;19.23;12.93;;;13.40;99.90;;;;;;5026914;28;20091;-76
2023/05/13 06:36:51;;;;;;;21.73;12.83;;;13.40;99.90;;;;;;5031379;28;20034;-75
2023/05/13 06:39:16;;;;;;;20.83;12.97;;;13.30;99.90;;;;;;5020559;28;20481;-74
2023/05/13 06:41:43;;;;;;;20.47;12.93;;;13.40;99.90;;;;;;5029487;28;20374;-74
2023/05/13 06:44:09;;;;;;;15.32;11.70;;;13.40;99.90;;;;;;5026197;28;20580;-74
2023/05/13 06:46:35;;;;;;;20.37;13.07;;;13.30;99.90;;;;;;5031259;28;20034;-75
2023/05/13 06:49:02;;;;;;;17.70;12.55;;;13.30;99.90;;;;;;5024946;28;20064;-73
2023/05/13 06:51:27;;;;;;;17.80;11.98;;;13.30;99.90;;;;;;5008232;28;20524;-75
2023/05/13 06:53:54;;;;;;;17.07;12.30;;;13.40;99.90;;;;;;5028104;28;20038;-73
2023/05/13 06:56:21;;;;;;;19.10;11.77;;;13.30;99.90;;;;;;5030032;28;20040;-73
2023/05/13 06:58:48;;;;;;;18.88;11.65;;;13.30;99.90;;;;;;5033215;28;20041;-74
2023/05/13 07:01:15;;;;;;;15.02;11.75;;;13.40;99.90;;;;;;5034064;28;20075;-74
2023/05/13 07:03:41;;;;;;;;;;;13.30;99.90;;;;;;5031871;28;20026;-70
2023/05/13 07:06:06;;;;;;;15.00;10.95;;;13.30;99.90;;;;;;5032189;28;19919;-75
2023/05/13 07:08:32;;;;;;;17.33;12.00;;;13.40;99.90;;;;;;5031653;28;20018;-71
2023/05/13 07:10:58;;;;;;;15.33;11.07;;;13.40;99.90;;;;;;5032209;28;20467;-71
2023/05/13 07:13:23;;;;;;;18.27;11.73;;;13.40;99.90;;;;;;5033029;28;20448;-70
2023/05/13 07:15:49;;;;;;;14.27;10.68;;;13.40;99.90;;;;;;5030076;28;20057;-69
2023/05/13 07:18:15;;;;;;;17.20;11.30;;;13.40;99.90;;;;;;5031314;28;20405;-70
2023/05/13 07:20:40;;;;;;;18.17;10.70;;;13.40;99.90;;;;;;5012616;28;21467;-70
2023/05/13 07:23:06;;;;;;;12.97;10.27;;;13.50;99.90;;;;;;5023261;28;20068;-70
2023/05/13 07:25:32;;;;;;;16.70;10.73;;;13.40;99.90;;;;;;5032515;28;20493;-72
2023/05/13 07:27:58;;;;;;;15.40;10.85;;;13.40;99.90;;;;;;5032623;28;20489;-72
2023/05/13 07:30:23;;;;;;;15.13;10.53;;;13.40;99.90;;;;;;5033639;28;20037;-72
2023/05/13 07:32:49;;;;;;;15.27;11.13;;;13.40;99.90;;;;;;5033478;28;20036;-75
2023/05/13 07:35:16;;;;;;;18.47;11.77;;;13.50;99.90;;;;;;5033355;28;20099;-68
2023/05/13 07:37:42;;;;;;;19.67;12.07;;;13.40;99.90;;;;;;5032424;28;20061;-69
2023/05/13 07:40:08;;;;;;;;;;;13.50;99.90;;;;;;5029553;28;20121;-69
2023/05/13 07:42:34;;;;;;;17.63;11.38;;;13.70;99.90;;;;;;5030181;28;20355;-69
2023/05/13 07:45:00;;;;;;;15.10;10.38;;;13.60;99.90;;;;;;5031787;28;20025;-73
2023/05/13 07:47:27;;;;;;;17.05;11.07;;;13.60;99.90;;;;;;5048541;28;20033;-68
2023/05/13 07:49:53;;;;;;;15.15;10.73;;;13.60;99.90;;;;;;5026167;28;20506;-72
2023/05/13 07:52:19;;;;;;;15.45;11.18;;;13.60;99.90;;;;;;5037284;28;21059;-77
2023/05/13 07:54:45;;;;;;;16.53;11.00;;;13.70;99.90;;;;;;5032693;28;20055;-69
2023/05/13 07:57:10;;;;;;;13.80;10.03;;;13.70;99.90;;;;;;5037191;28;20029;-68
2023/05/13 07:59:37;;;;;;;15.47;10.27;;;13.60;99.90;;;;;;5036570;28;20021;-76
2023/05/13 08:02:02;;;;;;;16.38;11.05;;;13.50;99.90;;;;;;5033767;28;20029;-79
2023/05/13 08:04:28;;;;;;;15.47;9.67;;;13.60;99.90;;;;;;5041334;28;20401;-71
2023/05/13 08:06:53;;;;;;;16.37;10.50;;;13.60;99.90;;;;;;5040475;28;20069;-72
2023/05/13 08:09:19;;;;;;;13.33;10.07;;;13.70;99.90;;;;;;5035789;28;20036;-75
2023/05/13 08:11:45;;;;;;;13.80;9.67;;;13.90;99.90;;;;;;5033356;28;20535;-73
2023/05/13 08:14:10;;;;;;;19.33;10.33;;;13.90;99.90;;;;;;5032120;28;20420;-76
2023/05/13 08:16:36;;;;;;;14.40;9.03;;;13.90;99.90;;;;;;5036108;28;20021;-72
2023/05/13 08:19:02;;;;;;;19.90;9.98;;;14.00;99.90;;;;;;5034520;28;20033;-69
2023/05/13 08:21:28;;;;;;;13.57;8.55;;;14.00;99.90;;;;;;5031300;28;20083;-78
2023/05/13 08:23:54;;;;;;;15.47;9.80;;;14.00;99.90;;;;;;5031312;28;20030;-73
2023/05/13 08:26:19;;;;;;;14.10;9.50;;;13.90;99.90;;;;;;5027269;28;20068;-73
2023/05/13 08:28:45;;;;;;;14.87;9.83;;;14.00;99.90;;;;;;5031863;28;20025;-75
2023/05/13 08:31:12;;;;;;;12.50;8.47;;;14.00;99.90;;;;;;5030265;28;20017;-76
2023/05/13 08:33:38;;;;;;;;;;;14.00;99.90;;;;;;5027374;28;20100;-76
2023/05/13 08:36:04;;;;;;;12.77;10.07;;;14.00;99.90;;;;;;5032195;28;19925;-77
2023/05/13 08:38:32;;;;;;;16.77;9.02;;;14.00;99.90;;;;;;5031497;28;20056;-74
2023/05/13 08:40:58;;;;;;;12.90;8.10;;;14.20;99.90;;;;;;5031978;28;20044;-71
2023/05/13 08:43:27;;;;;;;11.40;9.15;;;14.30;99.90;;;;;;5031182;28;20029;-67
2023/05/13 08:45:55;;;;;;;11.27;8.25;;;14.20;99.90;;;;;;5030671;28;20028;-74
2023/05/13 08:48:22;;;;;;;12.23;8.38;;;14.30;99.90;;;;;;5031292;28;20026;-71
2023/05/13 08:50:48;;;;;;;11.68;8.73;;;14.30;99.90;;;;;;5029770;28;20033;-71
2023/05/13 08:53:17;;;;;;;12.00;9.20;;;14.40;99.90;;;;;;5031732;28;20030;-75
2023/05/13 08:55:43;;;;;;;10.18;7.80;;;14.50;99.90;;;;;;5031356;28;20080;-76
2023/05/13 08:58:08;;;;;;;10.40;8.00;;;14.60;99.90;;;;;;5030457;28;20501;-72
2023/05/13 09:00:34;;;;;;;14.10;7.80;;;14.80;99.90;;;;;;5032883;28;20029;-77
2023/05/13 09:03:01;;;;;;;10.15;8.00;;;15.00;99.90;;;;;;5030878;28;20025;-81
2023/05/13 09:05:26;;;;;;;10.95;7.82;;;15.20;99.90;;;;;;5032603;28;20062;-76
2023/05/13 09:07:52;;;;;;;9.33;7.10;;;15.20;99.90;;;;;;5025375;28;20462;-78
2023/05/13 09:10:19;;;;;;;10.93;6.70;;;15.20;99.90;;;;;;5035101;28;20033;-73
2023/05/13 09:12:53;;;;;;;12.85;8.50;;;15.30;99.90;;;;;;5034015;28;20037;-78
2023/05/13 09:15:21;;;;;;;10.07;7.80;;;15.10;99.90;;;;;;5028678;28;20033;-77
2023/05/13 09:17:50;;;;;;;11.05;7.88;;;15.00;99.90;;;;;;5034691;28;20529;-70
2023/05/13 09:20:16;;;;;;;10.65;7.82;;;15.00;99.90;;;;;;5028395;28;20060;-80
2023/05/13 09:22:47;;;;;;;9.15;7.45;;;15.00;99.90;;;;;;5032250;28;20192;-81
2023/05/13 09:25:14;;;;;;;14.52;7.50;;;15.00;99.90;;;;;;5029219;28;20048;-77
2023/05/13 09:27:43;;;;;;;11.10;7.07;;;15.10;99.90;;;;;;5031333;28;20025;-75
2023/05/13 09:30:10;;;;;;;9.05;7.70;;;15.10;99.90;;;;;;5045829;28;20075;-83
2023/05/13 09:32:36;;;;;;;9.38;7.53;;;15.10;99.90;;;;;;5032425;28;20040;-76
2023/05/13 09:35:15;;;;;;;9.35;7.50;;;15.10;99.90;;;;;;5030483;28;20046;-75
2023/05/13 09:37:43;;;;;;;9.85;7.93;;;15.20;99.90;;;;;;5032013;28;20376;-75
2023/05/13 09:40:14;;;;;;;10.25;7.25;;;15.40;99.90;;;;;;5033371;28;20401;-75
2023/05/13 09:42:47;;;;;;;9.90;7.03;;;15.50;99.90;;;;;;5026803;28;20044;-78
2023/05/13 09:45:14;;;;;;;10.90;7.80;;;15.70;99.90;;;;;;5031553;28;20021;-76
2023/05/13 09:47:40;;;;;;;11.10;7.70;;;16.10;99.90;;;;;;5039943;28;20086;-75
2023/05/13 09:50:07;;;;;;;9.45;7.57;;;16.40;99.90;;;;;;5033502;28;21165;-70
2023/05/13 09:52:34;;;;;;;9.07;6.85;;;16.50;99.90;;;;;;5029056;28;20100;-79
2023/05/13 09:55:03;;;;;;;9.50;7.18;;;16.60;99.90;;;;;;5030638;28;20072;-71
2023/05/13 09:57:31;;;;;;;7.88;6.20;;;16.70;99.90;;;;;;5032516;28;20041;-70
2023/05/13 10:00:01;;;;;;;8.93;6.53;;;16.90;99.90;;;;;;5031240;28;20117;-73
2023/05/13 10:02:27;;;;;;;7.97;6.57;;;17.00;99.90;;;;;;5033704;28;20051;-70
2023/05/13 10:04:57;;;;;;;9.40;7.00;;;17.10;99.90;;;;;;5033497;28;20021;-74
2023/05/13 10:07:24;;;;;;;8.40;6.63;;;17.20;99.90;;;;;;5031490;28;20927;-71
2023/05/13 10:10:02;;;;;;;9.00;6.88;;;17.20;99.90;;;;;;5026886;28;20033;-70
2023/05/13 10:12:30;;;;;;;10.07;6.68;;;16.90;99.90;;;;;;5035622;28;20111;-72
2023/05/13 10:14:57;;;;;;;8.77;6.63;;;17.20;99.90;;;;;;5030246;28;20041;-71
2023/05/13 10:17:24;;;;;;;9.43;6.95;;;17.30;99.90;;;;;;5026403;28;20042;-71
2023/05/13 10:19:53;;;;;;;12.30;7.82;;;17.20;99.90;;;;;;5025204;28;20493;-67
2023/05/13 10:22:30;;;;;;;9.00;7.50;;;17.30;99.90;;;;;;5031264;28;20047;-73
2023/05/13 10:24:57;;;;;;;12.57;8.38;;;16.90;99.90;;;;;;5030087;28;20030;-68
2023/05/13 10:27:27;;;;;;;10.13;7.90;;;17.00;99.90;;;;;;5031640;28;20060;-66
2023/05/13 10:29:54;;;;;;;13.80;7.05;;;17.00;99.90;;;;;;5033363;28;20508;-67
2023/05/13 10:32:22;;;;;;;10.13;7.60;;;17.10;99.90;;;;;;5025612;28;20034;-68
2023/05/13 10:34:49;;;;;;;11.63;8.93;;;17.00;99.90;;;;;;5024308;28;20053;-65
2023/05/13 10:37:26;;;;;;;;;;;17.30;99.90;;;;;;5032195;28;20033;-67
2023/05/13 10:40:18;;;;;;;10.85;7.75;;;17.40;99.90;;;;;;5022842;28;20503;-68
2023/05/13 10:43:24;;;;;;;9.52;7.90;;;17.40;99.90;;;;;;5039909;28;20045;-72
2023/05/13 10:46:01;;;;;;;10.93;8.40;;;17.10;99.90;;;;;;5030234;28;20046;-66
2023/05/13 10:48:41;;;;;;;12.32;7.50;;;17.20;99.90;;;;;;5029343;28;20094;-67
2023/05/13 10:51:09;;;;;;;10.90;8.52;;;17.20;99.90;;;;;;5027780;28;20527;-67
2023/05/13 10:53:49;;;;;;;8.80;7.05;;;17.40;99.90;;;;;;5032628;28;20083;-70
2023/05/13 10:56:18;;;;;;;10.18;7.05;;;17.30;99.90;;;;;;5038314;28;20067;-71
2023/05/13 10:59:05;;;;;;;12.07;7.38;;;17.50;99.90;;;;;;5034906;28;20029;-67
2023/05/13 11:01:45;;;;;;;10.05;7.57;;;17.50;99.90;;;;;;5038679;28;20037;-67
2023/05/13 11:04:14;;;;;;;9.30;7.30;;;17.60;99.90;;;;;;5028199;28;20072;-70
2023/05/13 11:06:42;;;;;;;9.73;8.05;;;17.70;99.90;;;;;;5033568;28;20037;-73
2023/05/13 11:09:14;;;;;;;9.05;6.90;;;17.70;99.90;;;;;;5062417;28;20037;-69
2023/05/13 11:11:40;;;;;;;14.57;6.93;;;17.70;99.90;;;;;;5023859;28;20021;-68
2023/05/13 11:14:26;;;;;;;7.95;6.75;;;17.60;99.90;;;;;;5035893;28;20033;-70
2023/05/13 11:16:58;;;;;;;9.48;6.93;;;17.80;99.90;;;;;;5063670;28;20124;-71
2023/05/13 11:19:36;;;;;;;7.28;6.15;;;18.00;99.90;;;;;;5032835;28;20552;-68
2023/05/13 11:22:11;;;;;;;8.60;6.35;;;18.40;99.90;;;;;;5028082;28;20118;-68
2023/05/13 11:24:37;;;;;;;8.80;6.90;;;18.80;99.90;;;;;;5029851;28;20021;-69
2023/05/13 11:27:16;;;;;;;11.15;6.43;;;19.20;99.90;;;;;;5031066;28;20091;-71
2023/05/13 11:29:50;;;;;;;7.95;6.18;;;19.40;99.90;;;;;;5026081;28;20041;-71
2023/05/13 11:32:55;;;;;;;9.48;7.32;;;19.50;99.90;;;;;;5034245;28;20025;-66
2023/05/13 11:35:25;;;;;;;9.35;7.72;;;19.90;98.40;;;;;;5032716;28;20033;-68
2023/05/13 11:37:52;;;;;;;10.00;7.22;;;20.20;98.50;;;;;;5037251;28;20029;-69
2023/05/13 11:40:28;;;;;;;8.55;7.13;;;20.20;96.80;;;;;;5032626;28;20044;-68
2023/05/13 11:42:54;;;;;;;11.40;7.82;;;20.00;97.10;;;;;;5038225;28;20116;-69
2023/05/13 11:45:22;;;;;;;7.72;5.85;;;20.20;97.20;;;;;;5034495;28;20167;-67
2023/05/13 11:47:49;;;;;;;7.63;6.15;;;20.30;94.90;;;;;;5034639;28;20155;-67
2023/05/13 11:50:21;;;;;;;8.35;5.45;;;20.10;96.40;;;;;;5032650;28;20119;-70
2023/05/13 11:52:51;;;;;;;6.38;5.13;;;19.90;97.00;;;;;;5033317;28;20025;-66
2023/05/13 11:55:28;;;;;;;8.40;6.05;;;19.90;96.50;;;;;;5039946;28;20037;-68
2023/05/13 11:57:54;;;;;;;;;;;19.80;95.60;;;;;;5032853;28;20030;-67
2023/05/13 12:00:31;;;;;;;6.63;5.70;;;19.50;96.50;;;;;;5032507;28;20324;-72
2023/05/13 12:02:57;;;;;;;8.00;5.93;;;19.50;96.80;;;;;;5034037;28;20338;-70
2023/05/13 12:05:24;;;;;;;7.10;5.80;;;19.30;95.70;;;;;;5029072;28;20037;-74
2023/05/13 12:07:50;;;;;;;7.07;5.00;;;19.20;95.60;;;;;;5007063;28;20120;-74
2023/05/13 12:10:16;;;;;;;6.30;5.35;;;19.30;96.60;;;;;;5045992;28;20025;-72
2023/05/13 12:12:45;;;;;;;5.72;5.13;;;19.00;95.50;;;;;;5032758;28;20750;-70
2023/05/13 12:15:13;;;;;;;10.65;5.80;;;19.40;96.40;;;;;;5044185;28;20048;-72
2023/05/13 12:17:39;;;;;;;6.22;5.15;;;19.90;97.30;;;;;;5026438;28;20064;-70
2023/05/13 12:20:15;;;;;;;9.77;5.45;;;20.00;97.00;;;;;;5028897;28;20175;-70
2023/05/13 12:22:43;;;;;;;8.95;6.47;;;19.90;92.40;;;;;;5025569;28;20052;-73
2023/05/13 12:25:49;;;;;;;9.15;5.03;;;19.90;94.80;;;;;;5031596;28;20030;-72
2023/05/13 12:28:25;;;;;;;5.90;5.07;;;20.00;93.90;;;;;;5012865;28;20048;-75
2023/05/13 12:30:57;;;;;;;6.40;4.85;;;20.30;92.90;;;;;;5008030;28;20108;-69
2023/05/13 12:33:25;;;;;;;5.00;4.32;;;20.50;94.10;;;;;;5020950;28;20038;-70
2023/05/13 12:35:52;;;;;;;5.40;3.40;;;20.10;92.10;;;;;;5031443;28;20051;-70
2023/05/13 12:38:20;;;;;;;4.80;3.80;;;20.40;91.60;;;;;;5032793;28;20065;-73
2023/05/13 12:40:47;;;;;;;5.75;3.60;;;20.40;91.90;;;;;;5022349;28;20044;-70